createdAt,value
2023-02-25T00:01:34.611Z,8.37
2023-02-25T00:04:01.323Z,8.49
2023-02-25T00:06:27.922Z,8.43
2023-02-25T00:08:54.967Z,8.32
2023-02-25T00:11:23.542Z,8.14
2023-02-25T00:13:50.447Z,8.09
2023-02-25T00:16:17.748Z,8.13
2023-02-25T00:18:46.376Z,8.27
2023-02-25T00:21:17.778Z,8.37
2023-02-25T00:23:46.591Z,8.48
2023-02-25T00:26:14.799Z,8.55
2023-02-25T00:28:42.011Z,8.45
2023-02-25T00:31:15.494Z,8.58
2023-02-25T00:33:42.492Z,8.52
2023-02-25T00:36:10.709Z,8.51
2023-02-25T00:38:37.290Z,8.45
2023-02-25T00:41:11.733Z,8.52
2023-02-25T00:43:42.653Z,8.46
2023-02-25T00:46:12.392Z,8.39
2023-02-25T00:48:40.025Z,8.37
2023-02-25T00:51:12.855Z,8.36
2023-02-25T00:53:40.064Z,8.45
2023-02-25T00:56:08.988Z,8.41
2023-02-25T00:58:37.218Z,8.37
2023-02-25T01:01:06.111Z,8.33
2023-02-25T01:03:33.325Z,8.30
2023-02-25T01:06:00.150Z,8.36
2023-02-25T01:08:26.810Z,8.30
2023-02-25T01:10:53.679Z,8.42
2023-02-25T01:13:20.145Z,8.34
2023-02-25T01:15:46.664Z,8.32
2023-02-25T01:18:13.140Z,8.26
2023-02-25T01:20:40.203Z,8.21
2023-02-25T01:23:07.123Z,8.19
2023-02-25T01:25:33.781Z,8.17
2023-02-25T01:28:00.478Z,8.18
2023-02-25T01:30:27.024Z,8.13
2023-02-25T01:32:53.699Z,8.18
2023-02-25T01:35:20.229Z,8.12
2023-02-25T01:37:47.611Z,7.99
2023-02-25T01:40:17.076Z,7.97
2023-02-25T01:42:45.997Z,7.95
2023-02-25T01:45:18.405Z,7.90
2023-02-25T01:47:49.927Z,7.90
2023-02-25T01:50:19.686Z,7.99
2023-02-25T01:52:46.467Z,8.06
2023-02-25T01:55:13.027Z,8.05
2023-02-25T01:57:39.758Z,8.05
2023-02-25T02:00:12.556Z,8.16
2023-02-25T02:02:39.200Z,8.21
2023-02-25T02:05:06.811Z,8.13
2023-02-25T02:07:33.295Z,8.05
2023-02-25T02:10:00.534Z,8.07
2023-02-25T02:12:35.653Z,8.12
2023-02-25T02:15:06.622Z,8.14
2023-02-25T02:17:41.958Z,8.10
2023-02-25T02:20:13.124Z,8.10
2023-02-25T02:22:51.161Z,8.19
2023-02-25T02:25:38.650Z,8.04
2023-02-25T02:28:26.603Z,8.07
2023-02-25T02:30:55.943Z,7.96
2023-02-25T02:33:40.752Z,7.96
2023-02-25T02:36:24.639Z,8.00
2023-02-25T02:39:09.179Z,7.93
2023-02-25T02:41:41.627Z,7.86
2023-02-25T02:44:26.983Z,7.76
2023-02-25T02:47:02.801Z,7.78
2023-02-25T02:50:08.051Z,7.82
2023-02-25T02:52:40.922Z,7.88
2023-02-25T02:55:22.284Z,7.75
2023-02-25T02:57:53.872Z,7.80
2023-02-25T03:00:25.946Z,7.76
2023-02-25T03:03:02.590Z,7.83
2023-02-25T03:05:31.522Z,7.94
2023-02-25T03:08:11.288Z,7.82
2023-02-25T03:10:37.813Z,7.69
2023-02-25T03:13:04.556Z,7.68
2023-02-25T03:15:32.441Z,7.85
2023-02-25T03:18:05.585Z,7.85
2023-02-25T03:20:42.455Z,7.86
2023-02-25T03:23:15.315Z,7.84
2023-02-25T03:25:49.741Z,7.76
2023-02-25T03:28:36.519Z,7.87
2023-02-25T03:31:17.144Z,7.77
2023-02-25T03:33:49.745Z,7.86
2023-02-25T03:36:22.354Z,7.88
2023-02-25T03:38:54.234Z,7.92
2023-02-25T03:41:25.339Z,7.82
2023-02-25T03:43:56.776Z,7.69
2023-02-25T03:46:24.227Z,7.77
2023-02-25T03:48:52.519Z,7.70
2023-02-25T03:51:23.729Z,7.70
2023-02-25T03:53:50.265Z,7.71
2023-02-25T03:56:17.003Z,7.74
2023-02-25T03:58:44.325Z,7.76
2023-02-25T04:01:27.889Z,7.78
2023-02-25T04:03:54.394Z,7.77
2023-02-25T04:06:23.217Z,7.75
2023-02-25T04:08:50.010Z,7.81
2023-02-25T04:11:16.777Z,7.76
2023-02-25T04:13:43.274Z,7.73
2023-02-25T04:16:09.905Z,7.75
2023-02-25T04:18:36.516Z,7.72
2023-02-25T04:21:05.801Z,7.75
2023-02-25T04:23:32.873Z,7.73
2023-02-25T04:25:59.365Z,7.62
2023-02-25T04:28:25.885Z,7.62
2023-02-25T04:30:52.482Z,7.68
2023-02-25T04:33:19.020Z,7.59
2023-02-25T04:35:45.558Z,7.61
2023-02-25T04:38:12.068Z,7.56
2023-02-25T04:40:38.523Z,7.56
2023-02-25T04:43:05.083Z,7.61
2023-02-25T04:45:31.571Z,7.59
2023-02-25T04:47:58.119Z,7.69
2023-02-25T04:50:25.402Z,7.57
2023-02-25T04:52:52.259Z,7.53
2023-02-25T04:55:18.846Z,7.54
2023-02-25T04:57:45.411Z,7.47
2023-02-25T05:00:29.735Z,7.40
2023-02-25T05:02:56.381Z,7.32
2023-02-25T05:05:22.849Z,7.43
2023-02-25T05:07:49.407Z,7.43
2023-02-25T05:10:16.141Z,7.42
2023-02-25T05:12:42.711Z,7.38
2023-02-25T05:15:10.658Z,7.38
2023-02-25T05:17:37.410Z,7.46
2023-02-25T05:20:11.754Z,7.48
2023-02-25T05:22:39.373Z,7.47
2023-02-25T05:25:07.500Z,7.46
2023-02-25T05:27:34.522Z,7.45
2023-02-25T05:30:01.661Z,7.32
2023-02-25T05:32:30.878Z,7.35
2023-02-25T05:34:58.101Z,7.40
2023-02-25T05:37:24.921Z,7.38
2023-02-25T05:39:51.444Z,7.36
2023-02-25T05:42:17.893Z,7.45
2023-02-25T05:44:44.375Z,7.37
2023-02-25T05:47:10.907Z,7.41
2023-02-25T05:49:37.428Z,7.41
2023-02-25T05:52:03.879Z,7.53
2023-02-25T05:54:30.409Z,7.42
2023-02-25T05:56:56.918Z,7.38
2023-02-25T05:59:23.436Z,7.42
2023-02-25T06:01:49.967Z,7.34
2023-02-25T06:04:16.490Z,7.35
2023-02-25T06:06:43.015Z,7.27
2023-02-25T06:09:10.317Z,7.31
2023-02-25T06:11:37.028Z,7.35
2023-02-25T06:14:03.585Z,7.32
2023-02-25T06:16:32.386Z,7.33
2023-02-25T06:19:01.146Z,7.23
2023-02-25T06:21:27.885Z,7.18
2023-02-25T06:23:54.501Z,7.22
2023-02-25T06:26:21.974Z,7.26
2023-02-25T06:28:48.709Z,7.37
2023-02-25T06:31:17.528Z,7.32
2023-02-25T06:33:45.612Z,7.36
2023-02-25T06:36:12.850Z,7.38
2023-02-25T06:38:40.098Z,7.40
2023-02-25T06:41:15.490Z,7.39
2023-02-25T06:43:42.334Z,7.23
2023-02-25T06:46:12.329Z,7.31
2023-02-25T06:48:39.152Z,7.34
2023-02-25T06:51:09.387Z,7.44
2023-02-25T06:53:40.723Z,7.34
2023-02-25T06:56:11.121Z,7.39
2023-02-25T06:58:38.140Z,7.38
2023-02-25T07:01:09.256Z,7.29
2023-02-25T07:03:36.126Z,7.36
2023-02-25T07:06:02.807Z,7.40
2023-02-25T07:08:29.312Z,7.35
2023-02-25T07:10:55.770Z,7.37
2023-02-25T07:13:22.367Z,7.38
2023-02-25T07:15:48.889Z,7.30
2023-02-25T07:18:16.215Z,7.36
2023-02-25T07:20:42.965Z,7.38
2023-02-25T07:23:09.494Z,7.50
2023-02-25T07:25:38.538Z,7.54
2023-02-25T07:28:05.058Z,7.64
2023-02-25T07:30:31.525Z,7.86
2023-02-25T07:32:58.140Z,7.87
2023-02-25T07:35:24.803Z,7.90
2023-02-25T07:37:51.656Z,7.83
2023-02-25T07:40:18.270Z,7.66
2023-02-25T07:42:44.762Z,7.54
2023-02-25T07:45:12.430Z,7.50
2023-02-25T07:47:39.136Z,7.53
2023-02-25T07:50:08.004Z,7.41
2023-02-25T07:52:34.566Z,7.44
2023-02-25T07:55:01.063Z,7.49
2023-02-25T07:57:28.795Z,7.56
2023-02-25T07:59:55.309Z,7.50
2023-02-25T08:02:21.940Z,7.44
2023-02-25T08:04:48.502Z,7.47
2023-02-25T08:07:15.051Z,7.48
2023-02-25T08:09:41.877Z,7.48
2023-02-25T08:12:08.875Z,7.55
2023-02-25T08:14:37.500Z,7.60
2023-02-25T08:17:04.007Z,7.47
2023-02-25T08:19:30.546Z,7.59
2023-02-25T08:21:57.033Z,7.50
2023-02-25T08:24:23.599Z,7.60
2023-02-25T08:26:50.136Z,7.67
2023-02-25T08:29:16.753Z,7.77
2023-02-25T08:31:43.294Z,7.90
2023-02-25T08:34:10.638Z,7.89
2023-02-25T08:36:37.207Z,7.88
2023-02-25T08:39:03.786Z,7.85
2023-02-25T08:41:30.701Z,7.82
2023-02-25T08:44:00.346Z,7.82
2023-02-25T08:46:29.186Z,7.87
2023-02-25T08:48:56.198Z,7.91
2023-02-25T08:51:26.585Z,7.96
2023-02-25T08:53:53.250Z,8.11
2023-02-25T08:56:19.801Z,8.14
2023-02-25T08:58:46.311Z,8.09
2023-02-25T09:01:18.164Z,8.08
2023-02-25T09:03:53.528Z,8.31
2023-02-25T09:06:27.933Z,8.40
2023-02-25T09:08:56.228Z,8.46
2023-02-25T09:11:24.584Z,8.62
2023-02-25T09:13:52.896Z,8.71
2023-02-25T09:16:20.154Z,8.91
2023-02-25T09:18:48.450Z,8.56
2023-02-25T09:21:15.509Z,8.36
2023-02-25T09:23:42.629Z,8.32
2023-02-25T09:26:09.584Z,8.19
2023-02-25T09:28:36.757Z,8.15
2023-02-25T09:31:03.889Z,7.87
2023-02-25T09:33:32.352Z,7.87
2023-02-25T09:36:14.320Z,7.84
2023-02-25T09:38:44.354Z,7.79
2023-02-25T09:41:49.614Z,7.85
2023-02-25T09:44:33.029Z,7.98
2023-02-25T09:47:14.753Z,8.22
2023-02-25T09:49:55.997Z,8.08
2023-02-25T09:52:35.853Z,8.05
2023-02-25T09:55:23.060Z,8.08
2023-02-25T09:58:14.025Z,8.08
2023-02-25T10:00:50.524Z,7.88
2023-02-25T10:03:44.864Z,7.88
2023-02-25T10:06:20.540Z,8.00
2023-02-25T10:09:09.186Z,8.09
2023-02-25T10:12:13.268Z,7.91
2023-02-25T10:15:21.274Z,7.79
2023-02-25T10:17:47.724Z,7.98
2023-02-25T10:20:43.276Z,8.11
2023-02-25T10:23:41.928Z,8.17
2023-02-25T10:26:20.775Z,8.14
2023-02-25T10:29:13.195Z,8.14
2023-02-25T10:31:45.669Z,8.27
2023-02-25T10:34:21.309Z,8.40
2023-02-25T10:36:54.307Z,8.46
2023-02-25T10:39:21.045Z,8.52
2023-02-25T10:41:49.319Z,8.52
2023-02-25T10:44:16.214Z,8.37
2023-02-25T10:46:50.046Z,8.52
2023-02-25T10:49:26.544Z,8.42
2023-02-25T10:52:01.067Z,8.11
2023-02-25T10:54:27.612Z,8.07
2023-02-25T10:56:55.114Z,7.96
2023-02-25T10:59:31.246Z,8.15
2023-02-25T11:02:00.126Z,8.13
2023-02-25T11:04:37.541Z,7.74
2023-02-25T11:07:24.022Z,7.54
2023-02-25T11:10:17.099Z,7.29
2023-02-25T11:12:55.158Z,7.46
2023-02-25T11:15:46.051Z,7.63
2023-02-25T11:18:31.902Z,7.81
2023-02-25T11:21:01.882Z,7.80
2023-02-25T11:23:34.271Z,7.94
2023-02-25T11:26:01.566Z,7.98
2023-02-25T11:28:38.571Z,7.93
2023-02-25T11:31:27.768Z,7.98
2023-02-25T11:33:59.451Z,8.14
2023-02-25T11:36:33.536Z,8.31
2023-02-25T11:39:18.000Z,8.27
2023-02-25T11:41:46.664Z,8.09
2023-02-25T11:44:20.781Z,8.22
2023-02-25T11:47:14.344Z,8.22
2023-02-25T11:49:42.587Z,8.17
2023-02-25T11:52:36.002Z,8.06
2023-02-25T11:55:39.185Z,8.07
2023-02-25T11:58:44.073Z,8.06
2023-02-25T12:01:24.797Z,8.04
2023-02-25T12:03:57.325Z,8.27
2023-02-25T12:06:56.846Z,8.11
2023-02-25T12:09:59.796Z,8.18
2023-02-25T12:13:11.489Z,8.20
